createdAt,value
2019-03-15T00:00:23.962Z,98662.16
2019-03-15T00:02:02.162Z,98670.30
2019-03-15T00:03:36.539Z,98680.22
2019-03-15T00:05:11.073Z,98671.89
2019-03-15T00:06:45.842Z,98678.89
2019-03-15T00:08:20.229Z,98670.02
2019-03-15T00:09:54.850Z,98676.47
2019-03-15T00:11:29.421Z,98671.44
2019-03-15T00:13:03.983Z,98686.75
2019-03-15T00:14:38.983Z,98694.97
2019-03-15T00:16:13.427Z,98693.61
2019-03-15T00:17:48.273Z,98691.51
2019-03-15T00:19:22.657Z,98694.05
2019-03-15T00:20:57.004Z,98698.66
2019-03-15T00:22:31.707Z,98699.58
2019-03-15T00:24:06.077Z,98706.63
2019-03-15T00:25:40.723Z,98699.10
2019-03-15T00:27:15.136Z,98707.98
2019-03-15T00:28:49.548Z,98717.11
2019-03-15T00:30:24.026Z,98719.89
2019-03-15T00:31:58.517Z,98723.93
2019-03-15T00:33:32.953Z,98724.18
2019-03-15T00:35:07.838Z,98731.03
2019-03-15T00:36:42.562Z,98727.36
2019-03-15T00:38:17.055Z,98730.13
2019-03-15T00:39:51.492Z,98743.28
2019-03-15T00:41:26.377Z,98742.33
2019-03-15T00:43:00.982Z,98737.02
2019-03-15T00:44:35.810Z,98742.27
2019-03-15T00:46:10.429Z,98735.44
2019-03-15T00:47:44.794Z,98734.67
2019-03-15T00:49:19.308Z,98736.55
2019-03-15T00:50:53.694Z,98740.06
2019-03-15T00:52:28.054Z,98750.03
2019-03-15T00:54:02.530Z,98739.77
2019-03-15T00:55:37.193Z,98756.35
2019-03-15T00:57:11.626Z,98760.47
2019-03-15T00:58:46.278Z,98755.42
2019-03-15T01:00:20.790Z,98757.12
2019-03-15T01:01:55.434Z,98765.77
2019-03-15T01:03:30.619Z,98762.14
2019-03-15T01:05:06.977Z,98781.28
2019-03-15T01:06:41.598Z,98764.43
2019-03-15T01:08:16.618Z,98768.35
2019-03-15T01:09:51.239Z,98759.61
2019-03-15T01:11:26.144Z,98768.78
2019-03-15T01:13:00.763Z,98772.91
2019-03-15T01:14:35.702Z,98776.31
2019-03-15T01:16:10.334Z,98777.57
2019-03-15T01:17:44.739Z,98773.83
2019-03-15T01:19:19.101Z,98773.94
2019-03-15T01:20:53.490Z,98783.05
2019-03-15T01:22:27.906Z,98774.59
2019-03-15T01:24:02.348Z,98778.26
2019-03-15T01:25:36.710Z,98783.63
2019-03-15T01:27:11.145Z,98788.99
2019-03-15T01:28:45.557Z,98786.93
2019-03-15T01:30:19.969Z,98790.40
2019-03-15T01:31:54.590Z,98789.53
2019-03-15T01:33:29.001Z,98795.26
2019-03-15T01:35:03.646Z,98805.37
2019-03-15T01:36:38.286Z,98786.36
2019-03-15T01:38:12.642Z,98790.23
2019-03-15T01:39:47.072Z,98786.34
2019-03-15T01:41:21.426Z,98797.08
2019-03-15T01:42:55.842Z,98807.02
2019-03-15T01:44:30.311Z,98806.55
2019-03-15T01:46:04.738Z,98814.84
2019-03-15T01:47:39.134Z,98808.62
2019-03-15T01:49:13.881Z,98812.34
2019-03-15T01:50:48.270Z,98815.27
2019-03-15T01:52:22.681Z,98819.48
2019-03-15T01:53:57.106Z,98819.44
2019-03-15T01:55:31.538Z,98825.91
2019-03-15T01:57:06.130Z,98819.02
2019-03-15T01:58:40.919Z,98827.37
2019-03-15T02:00:15.359Z,98826.79
2019-03-15T02:01:50.006Z,98827.91
2019-03-15T02:03:24.717Z,98825.41
2019-03-15T02:04:59.094Z,98824.73
2019-03-15T02:06:33.457Z,98825.38
2019-03-15T02:08:08.087Z,98831.05
2019-03-15T02:09:42.487Z,98830.42
2019-03-15T02:11:16.878Z,98828.59
2019-03-15T02:12:51.289Z,98829.03
2019-03-15T02:14:25.935Z,98838.12
2019-03-15T02:16:00.620Z,98841.69
2019-03-15T02:17:35.880Z,98841.75
2019-03-15T02:19:10.444Z,98849.52
2019-03-15T02:20:45.026Z,98851.38
2019-03-15T02:22:19.409Z,98853.41
2019-03-15T02:23:53.814Z,98857.04
2019-03-15T02:25:28.177Z,98848.83
2019-03-15T02:27:02.590Z,98862.34
2019-03-15T02:28:36.953Z,98860.25
2019-03-15T02:30:11.430Z,98860.89
2019-03-15T02:31:47.124Z,98869.06
2019-03-15T02:33:22.425Z,98866.33
2019-03-15T02:34:56.842Z,98867.09
2019-03-15T02:36:31.462Z,98870.01
2019-03-15T02:38:05.904Z,98871.15
2019-03-15T02:39:40.286Z,98869.15
2019-03-15T02:41:14.648Z,98873.97
2019-03-15T02:42:49.139Z,98877.27
2019-03-15T02:44:23.742Z,98878.29
2019-03-15T02:45:59.091Z,98871.95
2019-03-15T02:47:33.608Z,98876.30
2019-03-15T02:49:08.398Z,98874.38
2019-03-15T02:50:43.252Z,98871.55
2019-03-15T02:52:17.682Z,98882.27
2019-03-15T02:53:52.110Z,98882.22
2019-03-15T02:55:26.467Z,98886.25
2019-03-15T02:57:01.194Z,98880.23
2019-03-15T02:58:35.873Z,98882.72
2019-03-15T03:00:10.590Z,98875.73
2019-03-15T03:01:45.031Z,98886.74
2019-03-15T03:03:20.717Z,98881.77
2019-03-15T03:04:55.236Z,98887.38
2019-03-15T03:06:29.639Z,98887.84
2019-03-15T03:08:04.159Z,98883.37
2019-03-15T03:09:38.606Z,98896.63
2019-03-15T03:11:12.981Z,98891.84
2019-03-15T03:12:47.647Z,98900.01
2019-03-15T03:14:22.068Z,98908.66
2019-03-15T03:15:56.669Z,98907.73
2019-03-15T03:17:31.267Z,98915.23
2019-03-15T03:19:05.669Z,98906.74
2019-03-15T03:20:40.314Z,98914.73
2019-03-15T03:22:14.952Z,98915.80
2019-03-15T03:23:49.305Z,98913.57
2019-03-15T03:25:23.939Z,98910.98
2019-03-15T03:26:58.294Z,98913.88
2019-03-15T03:28:33.303Z,98918.07
2019-03-15T03:30:07.787Z,98910.08
2019-03-15T03:31:44.210Z,98914.09
2019-03-15T03:33:18.770Z,98920.58
2019-03-15T03:34:53.395Z,98921.47
2019-03-15T03:36:27.758Z,98904.59
2019-03-15T03:38:02.216Z,98922.30
2019-03-15T03:39:36.626Z,98922.86
2019-03-15T03:41:11.310Z,98933.00
2019-03-15T03:42:45.963Z,98922.55
2019-03-15T03:44:20.580Z,98925.75
2019-03-15T03:45:55.002Z,98924.62
2019-03-15T03:47:32.604Z,98938.89
2019-03-15T03:49:05.574Z,98933.70
2019-03-15T03:50:39.979Z,98929.09
2019-03-15T03:52:14.594Z,98934.79
2019-03-15T03:53:49.038Z,98938.47
2019-03-15T03:55:23.502Z,98945.48
2019-03-15T03:56:58.206Z,98936.52
2019-03-15T03:58:32.637Z,98943.94
2019-03-15T04:00:08.027Z,98945.67
2019-03-15T04:01:42.411Z,98945.45
2019-03-15T04:03:16.925Z,98951.11
2019-03-15T04:04:51.521Z,98948.19
2019-03-15T04:06:26.041Z,98960.38
2019-03-15T04:08:00.480Z,98943.98
2019-03-15T04:09:35.119Z,98945.56
2019-03-15T04:11:09.746Z,98966.22
2019-03-15T04:12:44.126Z,98949.12
2019-03-15T04:14:18.572Z,98950.33
2019-03-15T04:15:52.924Z,98962.52
2019-03-15T04:17:27.347Z,98956.58
2019-03-15T04:19:02.235Z,98962.25
2019-03-15T04:20:36.629Z,98963.27
2019-03-15T04:22:11.234Z,98958.35
2019-03-15T04:23:45.707Z,98958.97
2019-03-15T04:25:20.149Z,98961.39
2019-03-15T04:26:54.937Z,98966.83
2019-03-15T04:28:29.302Z,98961.00
2019-03-15T04:30:04.810Z,98960.45
2019-03-15T04:31:39.237Z,98960.04
2019-03-15T04:33:13.598Z,98976.05
2019-03-15T04:34:48.014Z,98983.12
2019-03-15T04:36:22.507Z,98972.77
2019-03-15T04:37:56.883Z,98977.72
2019-03-15T04:39:31.301Z,98971.75
2019-03-15T04:41:05.921Z,98966.33
2019-03-15T04:42:40.300Z,98980.20
2019-03-15T04:44:14.752Z,98986.98
2019-03-15T04:45:49.164Z,98992.25
2019-03-15T04:47:23.783Z,98998.26
2019-03-15T04:48:58.425Z,98995.47
2019-03-15T04:50:32.789Z,99003.23
2019-03-15T04:52:07.229Z,99010.27
2019-03-15T04:53:41.611Z,99008.63
2019-03-15T04:55:16.282Z,99011.88
2019-03-15T04:56:50.669Z,99013.27
2019-03-15T04:58:25.271Z,99018.55
2019-03-15T04:59:59.620Z,99007.00
2019-03-15T05:01:34.264Z,99016.86
2019-03-15T05:03:08.613Z,99005.22
2019-03-15T05:04:43.358Z,99008.63
2019-03-15T05:06:17.725Z,99015.14
2019-03-15T05:07:52.375Z,99010.63
2019-03-15T05:09:26.733Z,99014.65
2019-03-15T05:11:01.190Z,99007.45
2019-03-15T05:12:35.906Z,99014.16
2019-03-15T05:14:10.274Z,99015.98
2019-03-15T05:15:44.626Z,99011.69
2019-03-15T05:17:18.977Z,99002.64
2019-03-15T05:18:53.325Z,99014.36
2019-03-15T05:20:28.073Z,99017.36
2019-03-15T05:22:02.469Z,99024.22
2019-03-15T05:23:37.109Z,99017.28
2019-03-15T05:25:11.640Z,99017.87
2019-03-15T05:26:46.066Z,99008.30
2019-03-15T05:28:20.491Z,99009.69
2019-03-15T05:29:54.910Z,99018.17
2019-03-15T05:31:29.293Z,99003.63
2019-03-15T05:33:03.956Z,99014.45
2019-03-15T05:34:38.818Z,99020.84
2019-03-15T05:36:13.181Z,99020.52
2019-03-15T05:37:47.614Z,99011.54
2019-03-15T05:39:21.968Z,99029.20
2019-03-15T05:40:56.339Z,99033.94
2019-03-15T05:42:31.059Z,99010.19
2019-03-15T05:44:05.726Z,99036.81
2019-03-15T05:45:40.069Z,99028.13
2019-03-15T05:47:14.691Z,99028.41
2019-03-15T05:48:49.050Z,99025.84
2019-03-15T05:50:23.418Z,99045.63
2019-03-15T05:51:58.014Z,99030.29
2019-03-15T05:53:32.971Z,99053.66
2019-03-15T05:55:10.070Z,99036.55
2019-03-15T05:56:44.905Z,99052.86
2019-03-15T05:58:21.900Z,99045.56
2019-03-15T05:59:56.893Z,99056.11
2019-03-15T06:01:31.927Z,99043.84
2019-03-15T06:03:06.722Z,99045.05
2019-03-15T06:04:41.786Z,99039.77
2019-03-15T06:06:18.659Z,99039.22
2019-03-15T06:07:53.073Z,99053.15
2019-03-15T06:09:27.860Z,99042.38
2019-03-15T06:11:02.680Z,99048.04
2019-03-15T06:12:37.723Z,99053.53
2019-03-15T06:14:12.762Z,99061.50
2019-03-15T06:15:47.802Z,99059.09
2019-03-15T06:17:22.612Z,99056.83
2019-03-15T06:18:57.392Z,99045.52
2019-03-15T06:20:32.165Z,99052.52
2019-03-15T06:22:06.940Z,99058.24
2019-03-15T06:23:41.705Z,99056.06
2019-03-15T06:25:16.110Z,99051.66
2019-03-15T06:26:50.699Z,99052.28
2019-03-15T06:28:25.471Z,99054.95
2019-03-15T06:30:00.367Z,99064.43
2019-03-15T06:31:34.966Z,99055.50
2019-03-15T06:33:09.826Z,99054.19
2019-03-15T06:34:44.281Z,99063.87
2019-03-15T06:36:18.997Z,99055.78
2019-03-15T06:37:53.370Z,99055.27
2019-03-15T06:39:28.098Z,99049.43
2019-03-15T06:41:02.823Z,99048.11
2019-03-15T06:42:37.254Z,99054.97
2019-03-15T06:44:11.612Z,99052.97
2019-03-15T06:45:46.250Z,99053.08
2019-03-15T06:47:20.678Z,99052.91
2019-03-15T06:48:55.204Z,99046.36
2019-03-15T06:50:29.694Z,99061.09
2019-03-15T06:52:04.078Z,99058.52
2019-03-15T06:53:38.433Z,99056.39
2019-03-15T06:55:12.949Z,99058.61
2019-03-15T06:56:47.309Z,99046.51
2019-03-15T06:58:21.717Z,99053.61
2019-03-15T06:59:59.387Z,99050.27
2019-03-15T07:01:32.659Z,99053.48
2019-03-15T07:03:07.113Z,99040.32
2019-03-15T07:04:41.569Z,99045.83
2019-03-15T07:06:15.933Z,99048.81
2019-03-15T07:07:50.337Z,99061.28
2019-03-15T07:09:24.751Z,99052.80
2019-03-15T07:10:59.117Z,99052.48
2019-03-15T07:12:33.584Z,99050.86
2019-03-15T07:14:08.000Z,99050.22
2019-03-15T07:15:44.266Z,99055.09
2019-03-15T07:17:18.665Z,99036.98
2019-03-15T07:18:53.079Z,99032.22
2019-03-15T07:20:27.445Z,99029.12
2019-03-15T07:22:02.183Z,99047.84
2019-03-15T07:23:36.970Z,99062.96
2019-03-15T07:25:11.510Z,99057.64
2019-03-15T07:26:45.931Z,99049.46
2019-03-15T07:28:20.521Z,99079.02
2019-03-15T07:29:55.142Z,99058.86
2019-03-15T07:31:29.506Z,99063.00
2019-03-15T07:33:03.901Z,99063.51
2019-03-15T07:34:38.262Z,99072.64
2019-03-15T07:36:12.882Z,99077.30
2019-03-15T07:37:47.788Z,99083.02
2019-03-15T07:39:22.917Z,99075.97
2019-03-15T07:40:57.430Z,99081.80
2019-03-15T07:42:31.790Z,99078.07
2019-03-15T07:44:06.168Z,99078.63
2019-03-15T07:45:40.689Z,99072.21
2019-03-15T07:47:15.330Z,99093.35
2019-03-15T07:48:49.937Z,99095.14
2019-03-15T07:50:24.553Z,99100.27
2019-03-15T07:51:58.942Z,99092.31
2019-03-15T07:53:35.356Z,99100.81
2019-03-15T07:55:09.449Z,99103.77
2019-03-15T07:56:43.816Z,99121.09
2019-03-15T07:58:18.380Z,99121.39
2019-03-15T07:59:52.849Z,99108.89
2019-03-15T08:01:27.214Z,99125.71
2019-03-15T08:03:01.577Z,99119.44
2019-03-15T08:04:36.267Z,99132.80
2019-03-15T08:06:10.702Z,99132.57
2019-03-15T08:07:46.000Z,99120.62
2019-03-15T08:09:21.332Z,99124.22
2019-03-15T08:10:56.126Z,99119.31
2019-03-15T08:12:31.170Z,99116.52
2019-03-15T08:14:06.106Z,99114.38
2019-03-15T08:15:40.995Z,99122.16
2019-03-15T08:17:16.050Z,99120.88
2019-03-15T08:18:51.080Z,99119.50
2019-03-15T08:20:25.862Z,99126.38
2019-03-15T08:22:00.371Z,99118.80
2019-03-15T08:23:35.559Z,99119.52
2019-03-15T08:25:10.179Z,99117.95
2019-03-15T08:26:44.633Z,99119.33
2019-03-15T08:28:19.074Z,99121.73
2019-03-15T08:29:53.824Z,99125.59
2019-03-15T08:31:28.879Z,99120.45
2019-03-15T08:33:10.241Z,99114.05
2019-03-15T08:34:40.233Z,99113.62
2019-03-15T08:36:15.019Z,99114.28
2019-03-15T08:37:50.037Z,99108.24
2019-03-15T08:39:24.836Z,99103.34
2019-03-15T08:41:00.212Z,99103.19
2019-03-15T08:42:35.235Z,99114.39
2019-03-15T08:44:12.927Z,99102.33
2019-03-15T08:45:48.648Z,99119.95
2019-03-15T08:47:23.788Z,99130.76
2019-03-15T08:48:58.844Z,99128.53
2019-03-15T08:50:33.682Z,99127.25
2019-03-15T08:52:08.775Z,99133.02
2019-03-15T08:53:43.621Z,99128.16
2019-03-15T08:55:18.507Z,99129.39
2019-03-15T08:56:53.816Z,99135.14
2019-03-15T08:58:29.063Z,99123.99
2019-03-15T09:00:04.760Z,99124.98
2019-03-15T09:01:39.625Z,99117.42
2019-03-15T09:03:27.330Z,99129.55
2019-03-15T09:04:50.945Z,99121.23
2019-03-15T09:06:26.403Z,99122.33
2019-03-15T09:08:01.195Z,99124.53
2019-03-15T09:09:36.174Z,99109.80
2019-03-15T09:11:10.967Z,99107.93
2019-03-15T09:12:46.277Z,99122.06
2019-03-15T09:14:21.316Z,99122.98
2019-03-15T09:15:56.099Z,99117.63
2019-03-15T09:17:30.883Z,99111.39
2019-03-15T09:19:06.428Z,99114.97
2019-03-15T09:20:41.762Z,99117.82
2019-03-15T09:22:16.869Z,99107.39
2019-03-15T09:23:51.661Z,99116.31
2019-03-15T09:25:26.547Z,99116.16
2019-03-15T09:27:01.423Z,99123.86
2019-03-15T09:28:36.208Z,99120.15
2019-03-15T09:30:22.471Z,99116.70
2019-03-15T09:31:48.664Z,99118.05
2019-03-15T09:33:23.504Z,99123.97
2019-03-15T09:34:58.299Z,99102.97
2019-03-15T09:36:34.070Z,99109.98
2019-03-15T09:38:10.390Z,99108.43
2019-03-15T09:39:45.538Z,99119.50
2019-03-15T09:41:30.823Z,99111.07
2019-03-15T09:42:59.759Z,99117.07
2019-03-15T09:44:33.851Z,99109.45
2019-03-15T09:46:08.668Z,99125.67
2019-03-15T09:47:43.586Z,99118.50
2019-03-15T09:49:18.609Z,99132.39
2019-03-15T09:50:53.438Z,99137.88
2019-03-15T09:52:28.487Z,99126.60
2019-03-15T09:54:03.276Z,99119.47
2019-03-15T09:55:38.060Z,99116.06
2019-03-15T09:57:13.231Z,99115.98
2019-03-15T09:58:48.012Z,99124.70
2019-03-15T10:00:22.872Z,99112.79
2019-03-15T10:01:57.913Z,99117.73
2019-03-15T10:03:33.079Z,99105.62
2019-03-15T10:05:11.322Z,99107.06
2019-03-15T10:06:44.986Z,99103.81
2019-03-15T10:08:23.335Z,99095.02
2019-03-15T10:09:56.297Z,99094.22
2019-03-15T10:11:31.118Z,99088.23
2019-03-15T10:13:06.583Z,99085.59
2019-03-15T10:14:41.770Z,99090.20
2019-03-15T10:16:16.558Z,99096.66
2019-03-15T10:17:51.429Z,99096.09
2019-03-15T10:19:29.463Z,99094.25
2019-03-15T10:21:02.755Z,99085.58
2019-03-15T10:22:37.559Z,99086.86
2019-03-15T10:24:15.579Z,99086.37
2019-03-15T10:25:51.294Z,99079.66
2019-03-15T10:27:26.327Z,99076.94
2019-03-15T10:29:14.323Z,99072.91
2019-03-15T10:30:37.977Z,99074.44
2019-03-15T10:32:12.766Z,99083.06
2019-03-15T10:33:50.821Z,99077.58
2019-03-15T10:35:24.474Z,99081.09
2019-03-15T10:36:59.267Z,99081.55
2019-03-15T10:38:34.055Z,99068.48
2019-03-15T10:40:12.739Z,99077.32
2019-03-15T10:41:47.523Z,99065.64
2019-03-15T10:43:22.676Z,99072.41
2019-03-15T10:44:57.490Z,99065.80
2019-03-15T10:46:32.271Z,99067.03
2019-03-15T10:48:08.226Z,99065.94
2019-03-15T10:49:43.199Z,99076.23
2019-03-15T10:51:18.035Z,99078.33
2019-03-15T10:52:53.941Z,99083.68
2019-03-15T10:54:29.346Z,99086.77
2019-03-15T10:56:04.168Z,99071.83
2019-03-15T10:57:39.219Z,99078.41
2019-03-15T10:59:14.489Z,99080.09
2019-03-15T11:00:49.273Z,99080.09
2019-03-15T11:02:24.081Z,99085.66
2019-03-15T11:03:59.102Z,99081.78
2019-03-15T11:05:33.899Z,99078.29
2019-03-15T11:07:08.785Z,99075.64
2019-03-15T11:08:45.736Z,99078.92
2019-03-15T11:10:20.541Z,99077.42
2019-03-15T11:11:55.580Z,99077.28
2019-03-15T11:13:30.371Z,99073.55
2019-03-15T11:15:05.561Z,99065.39
2019-03-15T11:16:40.416Z,99070.02
2019-03-15T11:18:14.905Z,99069.58
2019-03-15T11:19:49.503Z,99074.88
2019-03-15T11:21:24.049Z,99064.58
2019-03-15T11:22:58.417Z,99073.28
2019-03-15T11:24:33.053Z,99065.63
2019-03-15T11:26:13.398Z,99063.14
2019-03-15T11:27:43.866Z,99064.58
2019-03-15T11:29:18.246Z,99067.24
2019-03-15T11:30:52.708Z,99062.74
2019-03-15T11:32:27.140Z,99054.86
2019-03-15T11:34:01.781Z,99053.88
2019-03-15T11:35:36.452Z,99034.60
2019-03-15T11:37:10.813Z,99043.47
2019-03-15T11:38:45.566Z,99036.27
2019-03-15T11:40:20.364Z,99037.06
2019-03-15T11:41:55.152Z,99033.27
2019-03-15T11:43:30.295Z,99023.88
2019-03-15T11:45:05.709Z,99022.43
2019-03-15T11:46:40.525Z,99015.37
2019-03-15T11:48:15.805Z,99017.86
2019-03-15T11:49:50.638Z,99023.58
2019-03-15T11:51:25.679Z,99015.83
2019-03-15T11:53:00.736Z,99011.80
2019-03-15T11:54:35.780Z,99018.30
2019-03-15T11:56:10.664Z,99017.73
2019-03-15T11:57:45.495Z,99017.83
2019-03-15T11:59:20.291Z,99018.55
2019-03-15T12:00:55.359Z,99016.98
2019-03-15T12:02:30.259Z,99027.47
2019-03-15T12:04:05.211Z,99018.59
2019-03-15T12:05:39.866Z,99049.80
2019-03-15T12:07:14.309Z,99048.80
2019-03-15T12:08:49.053Z,99050.89
2019-03-15T12:10:23.422Z,99047.78
2019-03-15T12:11:57.862Z,99040.89
2019-03-15T12:13:32.231Z,99048.76
2019-03-15T12:15:08.386Z,99042.54
2019-03-15T12:16:42.822Z,99033.37
2019-03-15T12:18:17.250Z,99027.80
2019-03-15T12:19:51.613Z,99022.06
2019-03-15T12:21:26.109Z,99024.36
2019-03-15T12:23:00.860Z,99029.27
2019-03-15T12:24:35.645Z,99029.84
2019-03-15T12:26:10.426Z,99028.40
2019-03-15T12:27:45.249Z,99028.97
2019-03-15T12:29:20.631Z,99021.80
2019-03-15T12:30:55.445Z,99016.44
2019-03-15T12:32:30.488Z,99022.02
2019-03-15T12:34:05.627Z,99029.34
2019-03-15T12:35:40.416Z,99032.05
2019-03-15T12:37:15.191Z,99025.55
2019-03-15T12:38:49.984Z,99030.78
2019-03-15T12:40:25.121Z,99025.98
2019-03-15T12:41:59.909Z,99021.88
2019-03-15T12:43:34.699Z,99016.58
2019-03-15T12:45:10.711Z,99019.11
2019-03-15T12:46:45.161Z,99004.08
2019-03-15T12:48:19.779Z,99000.69
2019-03-15T12:49:54.414Z,99002.66
2019-03-15T12:51:32.426Z,98994.41
2019-03-15T12:53:05.497Z,98996.01
2019-03-15T12:54:40.365Z,99009.73
2019-03-15T12:56:14.997Z,99001.89
2019-03-15T12:57:49.813Z,99003.59
2019-03-15T12:59:24.605Z,99008.70
2019-03-15T13:00:59.050Z,99001.17
2019-03-15T13:02:33.654Z,98998.20
2019-03-15T13:04:08.274Z,98992.79
2019-03-15T13:05:43.102Z,98981.34
2019-03-15T13:07:17.461Z,98977.42
2019-03-15T13:08:51.901Z,98977.02
2019-03-15T13:10:26.513Z,98972.13
2019-03-15T13:12:00.977Z,98967.95
2019-03-15T13:13:35.337Z,98977.09
2019-03-15T13:15:11.302Z,98974.34
2019-03-15T13:16:45.663Z,98969.76
2019-03-15T13:18:20.143Z,98965.41
2019-03-15T13:19:55.609Z,98958.28
2019-03-15T13:21:30.175Z,98955.48
2019-03-15T13:23:04.595Z,98955.55
2019-03-15T13:24:39.062Z,98951.68
2019-03-15T13:26:13.429Z,98948.93
2019-03-15T13:27:48.213Z,98944.74
2019-03-15T13:29:22.581Z,98941.52
2019-03-15T13:30:56.986Z,98937.64
2019-03-15T13:32:31.478Z,98941.41
2019-03-15T13:34:05.850Z,98941.30
2019-03-15T13:35:40.818Z,98931.45
2019-03-15T13:37:15.234Z,98922.12
2019-03-15T13:38:49.645Z,98924.59
2019-03-15T13:40:24.010Z,98919.22
2019-03-15T13:41:58.704Z,98924.78
2019-03-15T13:43:33.089Z,98919.58
2019-03-15T13:45:09.239Z,98915.23
2019-03-15T13:46:43.880Z,98910.21
2019-03-15T13:48:18.879Z,98902.66
2019-03-15T13:49:53.294Z,98899.03
2019-03-15T13:51:27.823Z,98891.41
2019-03-15T13:53:02.207Z,98895.70
2019-03-15T13:54:36.830Z,98885.73
2019-03-15T13:56:11.229Z,98879.86
2019-03-15T13:57:45.593Z,98873.05
2019-03-15T13:59:19.991Z,98868.85
2019-03-15T14:00:54.614Z,98868.00
2019-03-15T14:02:29.023Z,98864.13
2019-03-15T14:04:03.755Z,98863.81
2019-03-15T14:05:38.122Z,98865.10
2019-03-15T14:07:12.489Z,98865.74
2019-03-15T14:08:46.890Z,98873.79
2019-03-15T14:10:21.265Z,98876.70
2019-03-15T14:11:55.631Z,98876.97
2019-03-15T14:13:30.259Z,98871.22
2019-03-15T14:15:05.347Z,98866.13
2019-03-15T14:16:39.979Z,98866.86
2019-03-15T14:18:14.774Z,98860.35
2019-03-15T14:19:49.130Z,98857.65
2019-03-15T14:21:23.856Z,98853.69
2019-03-15T14:22:58.343Z,98843.93
2019-03-15T14:24:33.218Z,98846.25
2019-03-15T14:26:07.593Z,98842.77
2019-03-15T14:27:42.945Z,98835.70
2019-03-15T14:29:17.585Z,98822.00
2019-03-15T14:30:51.957Z,98826.31
2019-03-15T14:32:26.585Z,98819.58
2019-03-15T14:34:01.267Z,98820.73
2019-03-15T14:35:35.702Z,98823.75
2019-03-15T14:37:10.857Z,98820.85
2019-03-15T14:38:45.778Z,98818.09
2019-03-15T14:42:13.949Z,98806.98
2019-03-15T14:43:48.369Z,98806.10
2019-03-15T14:45:22.839Z,98802.81
2019-03-15T14:46:57.261Z,98788.75
2019-03-15T14:48:31.628Z,98783.75
2019-03-15T14:50:06.522Z,98777.96
2019-03-15T14:51:41.174Z,98787.23
2019-03-15T14:53:15.569Z,98777.11
2019-03-15T14:54:50.450Z,98775.84
2019-03-15T14:56:25.063Z,98779.19
2019-03-15T14:58:00.409Z,98766.06
2019-03-15T14:59:35.081Z,98769.87
2019-03-15T15:01:09.526Z,98765.39
2019-03-15T15:02:44.264Z,98760.48
2019-03-15T15:04:18.677Z,98751.65
2019-03-15T15:05:53.057Z,98751.30
2019-03-15T15:07:27.431Z,98755.89
2019-03-15T15:09:02.117Z,98746.95
2019-03-15T15:10:36.523Z,98744.11
2019-03-15T15:12:10.894Z,98746.63
2019-03-15T15:13:45.558Z,98742.11
2019-03-15T15:15:19.953Z,98733.98
2019-03-15T15:16:55.007Z,98737.06
2019-03-15T15:18:29.374Z,98743.39
2019-03-15T15:20:03.865Z,98743.43
2019-03-15T15:21:38.528Z,98732.66
2019-03-15T15:23:13.055Z,98729.70
2019-03-15T15:24:47.415Z,98731.45
2019-03-15T15:26:22.099Z,98733.72
2019-03-15T15:28:04.310Z,98736.31
2019-03-15T15:29:33.189Z,98730.41
2019-03-15T15:31:07.553Z,98728.05
2019-03-15T15:32:41.947Z,98739.19
2019-03-15T15:34:16.432Z,98738.80
2019-03-15T15:35:50.897Z,98738.38
2019-03-15T15:37:25.279Z,98750.17
2019-03-15T15:38:59.645Z,98735.56
2019-03-15T15:40:34.386Z,98743.44
2019-03-15T15:42:08.765Z,98749.30
2019-03-15T15:43:43.133Z,98742.24
2019-03-15T15:45:17.578Z,98727.51
2019-03-15T15:46:51.951Z,98743.32
2019-03-15T15:48:26.655Z,98739.61
2019-03-15T15:50:01.013Z,98740.97
2019-03-15T15:51:35.685Z,98731.20
2019-03-15T15:53:11.236Z,98732.25
2019-03-15T15:54:45.851Z,98730.28
2019-03-15T15:56:20.564Z,98725.22
2019-03-15T15:57:55.283Z,98733.01
2019-03-15T15:59:29.682Z,98733.67
2019-03-15T16:01:04.465Z,98731.42
2019-03-15T16:02:39.138Z,98745.11
2019-03-15T16:04:13.504Z,98728.78
2019-03-15T16:05:47.911Z,98724.29
2019-03-15T16:07:23.002Z,98726.68
2019-03-15T16:08:57.598Z,98729.45
2019-03-15T16:10:31.962Z,98712.20
2019-03-15T16:12:06.672Z,98714.88
2019-03-15T16:13:41.367Z,98718.25
2019-03-15T16:15:16.210Z,98714.53
2019-03-15T16:16:50.589Z,98708.41
2019-03-15T16:18:26.776Z,98699.42
2019-03-15T16:20:01.775Z,98694.64
2019-03-15T16:21:36.231Z,98683.68
2019-03-15T16:23:10.602Z,98690.28
2019-03-15T16:24:45.338Z,98685.91
2019-03-15T16:26:19.704Z,98672.99
2019-03-15T16:27:54.129Z,98678.41
2019-03-15T16:29:28.501Z,98688.55
2019-03-15T16:31:02.870Z,98687.12
2019-03-15T16:32:37.249Z,98673.07
2019-03-15T16:34:11.918Z,98677.76
2019-03-15T16:35:46.639Z,98670.16
2019-03-15T16:37:21.425Z,98664.58
2019-03-15T16:38:56.561Z,98653.08
2019-03-15T16:40:31.346Z,98661.57
2019-03-15T16:42:06.598Z,98648.97
2019-03-15T16:43:41.712Z,98643.23
2019-03-15T16:45:16.818Z,98660.23
2019-03-15T16:46:52.045Z,98662.77
2019-03-15T16:48:27.113Z,98652.76
2019-03-15T16:50:02.222Z,98661.32
2019-03-15T16:51:37.421Z,98654.86
2019-03-15T16:53:12.233Z,98645.84
2019-03-15T16:54:46.638Z,98648.53
2019-03-15T16:56:21.269Z,98654.98
2019-03-15T16:57:56.165Z,98649.70
2019-03-15T16:59:30.529Z,98642.49
2019-03-15T17:01:04.904Z,98633.78
2019-03-15T17:02:39.551Z,98636.52
2019-03-15T17:04:14.117Z,98635.89
2019-03-15T17:05:48.718Z,98622.45
2019-03-15T17:07:23.093Z,98621.81
2019-03-15T17:08:57.742Z,98621.95
2019-03-15T17:10:32.545Z,98620.68
2019-03-15T17:12:06.946Z,98613.69
2019-03-15T17:13:41.297Z,98608.20
2019-03-15T17:15:15.720Z,98607.99
2019-03-15T17:16:50.096Z,98601.07
2019-03-15T17:18:24.489Z,98605.54
2019-03-15T17:19:58.954Z,98598.09
2019-03-15T17:21:33.327Z,98603.52
2019-03-15T17:23:07.677Z,98597.45
2019-03-15T17:24:42.479Z,98600.09
2019-03-15T17:26:16.913Z,98592.34
2019-03-15T17:27:51.513Z,98589.69
2019-03-15T17:29:26.135Z,98576.47
2019-03-15T17:31:09.859Z,98582.14
2019-03-15T17:32:36.945Z,98582.77
2019-03-15T17:34:11.313Z,98583.20
2019-03-15T17:35:46.296Z,98580.46
2019-03-15T17:37:21.368Z,98585.03
2019-03-15T17:38:56.453Z,98565.12
2019-03-15T17:40:31.247Z,98559.59
2019-03-15T17:42:06.309Z,98555.39
2019-03-15T17:43:41.577Z,98559.45
2019-03-15T17:45:16.369Z,98564.31
2019-03-15T17:46:51.436Z,98560.25
2019-03-15T17:48:26.324Z,98552.06
2019-03-15T17:50:01.175Z,98551.91
2019-03-15T17:51:36.213Z,98553.70
2019-03-15T17:53:11.506Z,98545.36
2019-03-15T17:54:46.814Z,98540.30
2019-03-15T17:56:21.914Z,98543.92
2019-03-15T17:57:58.967Z,98536.31
2019-03-15T17:59:35.904Z,98526.38
2019-03-15T18:01:11.291Z,98519.44
2019-03-15T18:02:46.312Z,98524.42
2019-03-15T18:04:21.592Z,98530.16
2019-03-15T18:05:56.450Z,98524.36
2019-03-15T18:07:31.487Z,98526.84
2019-03-15T18:09:07.854Z,98537.12
2019-03-15T18:10:42.707Z,98520.34
2019-03-15T18:12:17.500Z,98525.72
2019-03-15T18:13:53.138Z,98496.80
2019-03-15T18:15:28.658Z,98511.84
2019-03-15T18:17:03.722Z,98536.81
2019-03-15T18:18:38.823Z,98541.45
2019-03-15T18:20:14.345Z,98537.67
2019-03-15T18:21:49.623Z,98542.78
2019-03-15T18:23:24.815Z,98543.41
2019-03-15T18:24:59.598Z,98544.98
2019-03-15T18:26:35.004Z,98523.28
2019-03-15T18:28:09.923Z,98539.38
2019-03-15T18:29:44.714Z,98539.84
2019-03-15T18:31:19.747Z,98558.67
2019-03-15T18:32:54.562Z,98562.38
2019-03-15T18:34:29.824Z,98561.09